createdAt,value
2022-11-24T00:01:06.419Z,0.04
2022-11-24T00:03:33.616Z,0.01
2022-11-24T00:06:11.177Z,0.03
2022-11-24T00:08:39.079Z,0.05
2022-11-24T00:11:10.338Z,0.03
2022-11-24T00:13:39.342Z,0.03
2022-11-24T00:16:08.178Z,0.01
2022-11-24T00:18:35.261Z,0.02
2022-11-24T00:21:02.256Z,-0.07
2022-11-24T00:23:29.239Z,-0.02
2022-11-24T00:25:56.227Z,-0.07
2022-11-24T00:28:23.238Z,0.01
2022-11-24T00:30:50.337Z,0.00
2022-11-24T00:33:17.357Z,-0.08
2022-11-24T00:35:44.397Z,0.01
2022-11-24T00:38:11.345Z,-0.01
2022-11-24T00:40:38.366Z,-0.02
2022-11-24T00:43:05.374Z,-0.02
2022-11-24T00:45:32.427Z,-0.03
2022-11-24T00:47:59.376Z,0.01
2022-11-24T00:50:26.384Z,-0.05
2022-11-24T00:52:53.422Z,0.03
2022-11-24T00:55:20.478Z,0.02
2022-11-24T00:57:47.442Z,0.03
2022-11-24T01:00:14.958Z,0.02
2022-11-24T01:02:42.061Z,-0.04
2022-11-24T01:05:09.249Z,-0.01
2022-11-24T01:07:36.308Z,-0.07
2022-11-24T01:10:03.357Z,-0.07
2022-11-24T01:12:30.345Z,0.01
2022-11-24T01:14:57.261Z,-0.08
2022-11-24T01:17:24.261Z,0.01
2022-11-24T01:19:51.617Z,0.00
2022-11-24T01:22:18.640Z,0.01
2022-11-24T01:24:46.016Z,0.02
2022-11-24T01:27:12.938Z,0.02
2022-11-24T01:29:39.907Z,0.03
2022-11-24T01:32:06.879Z,0.03
2022-11-24T01:34:34.049Z,0.02
2022-11-24T01:37:01.140Z,0.02
2022-11-24T01:39:28.120Z,0.01
2022-11-24T01:41:55.218Z,-0.03
2022-11-24T01:44:26.863Z,0.00
2022-11-24T01:46:58.304Z,-0.01
2022-11-24T01:49:36.144Z,-0.04
2022-11-24T01:52:30.139Z,-0.06
2022-11-24T01:54:58.905Z,-0.04
2022-11-24T01:57:28.001Z,-0.06
2022-11-24T01:59:57.488Z,-0.10
2022-11-24T02:02:25.245Z,-0.07
2022-11-24T02:04:52.306Z,-0.09
2022-11-24T02:07:19.387Z,-0.09
2022-11-24T02:10:01.179Z,-0.09
2022-11-24T02:12:28.196Z,-0.15
2022-11-24T02:14:55.867Z,-0.11
2022-11-24T02:17:22.820Z,-0.13
2022-11-24T02:19:53.856Z,-0.16
2022-11-24T02:22:46.766Z,-0.13
2022-11-24T02:25:36.183Z,-0.14
2022-11-24T02:28:05.702Z,-0.18
2022-11-24T02:30:32.696Z,-0.16
2022-11-24T02:32:59.682Z,-0.15
2022-11-24T02:35:27.657Z,-0.19
2022-11-24T02:37:54.598Z,-0.15
2022-11-24T02:40:25.938Z,-0.22
2022-11-24T02:43:08.159Z,-0.16
2022-11-24T02:45:35.177Z,-0.16
2022-11-24T02:48:02.138Z,-0.15
2022-11-24T02:50:29.135Z,-0.15
2022-11-24T02:52:56.076Z,-0.25
2022-11-24T02:55:23.863Z,-0.14
2022-11-24T02:57:50.848Z,-0.22
2022-11-24T03:00:18.504Z,-0.20
2022-11-24T03:02:45.567Z,-0.19
2022-11-24T03:05:12.741Z,-0.18
2022-11-24T03:07:39.819Z,-0.19
2022-11-24T03:10:07.057Z,-0.11
2022-11-24T03:12:34.396Z,-0.12
2022-11-24T03:15:02.578Z,-0.17
2022-11-24T03:17:29.674Z,-0.23
2022-11-24T03:20:01.455Z,-0.16
2022-11-24T03:22:31.175Z,-0.18
2022-11-24T03:24:58.240Z,-0.20
2022-11-24T03:27:25.299Z,-0.17
2022-11-24T03:29:52.272Z,-0.17
2022-11-24T03:32:19.249Z,-0.24
2022-11-24T03:34:46.175Z,-0.23
2022-11-24T03:37:13.267Z,-0.18
2022-11-24T03:39:40.243Z,-0.20
2022-11-24T03:42:07.256Z,-0.18
2022-11-24T03:44:34.516Z,-0.19
2022-11-24T03:47:01.740Z,-0.17
2022-11-24T03:49:28.716Z,-0.20
2022-11-24T03:51:55.706Z,-0.25
2022-11-24T03:54:22.665Z,-0.17
2022-11-24T03:56:49.720Z,-0.17
2022-11-24T03:59:17.202Z,-0.15
2022-11-24T04:01:44.232Z,-0.16
2022-11-24T04:04:12.076Z,-0.22
2022-11-24T04:06:39.361Z,-0.19
2022-11-24T04:09:06.414Z,-0.22
2022-11-24T04:11:51.736Z,-0.18
2022-11-24T04:14:19.656Z,-0.17
2022-11-24T04:16:46.818Z,-0.18
2022-11-24T04:19:13.784Z,-0.17
2022-11-24T04:21:40.821Z,-0.18
2022-11-24T04:24:07.879Z,-0.23
2022-11-24T04:26:34.897Z,-0.25
2022-11-24T04:29:01.842Z,-0.19
2022-11-24T04:31:28.839Z,-0.19
2022-11-24T04:33:55.843Z,-0.26
2022-11-24T04:36:22.859Z,-0.20
2022-11-24T04:39:25.613Z,-0.20
2022-11-24T04:41:36.719Z,-0.25
2022-11-24T04:44:03.707Z,-0.21
2022-11-24T04:46:30.816Z,-0.21
2022-11-24T04:48:57.821Z,-0.31
2022-11-24T04:51:24.734Z,-0.25
2022-11-24T04:53:51.698Z,-0.29
2022-11-24T04:56:18.616Z,-0.23
2022-11-24T04:58:48.960Z,-0.24
2022-11-24T05:01:15.999Z,-0.35
2022-11-24T05:03:43.079Z,-0.27
2022-11-24T05:06:10.082Z,-0.21
2022-11-24T05:08:37.054Z,-0.25
2022-11-24T05:11:07.428Z,-0.21
2022-11-24T05:13:34.567Z,-0.21
2022-11-24T05:16:01.940Z,-0.30
2022-11-24T05:18:29.145Z,-0.20
2022-11-24T05:20:56.281Z,-0.22
2022-11-24T05:23:23.234Z,-0.20
2022-11-24T05:25:50.252Z,-0.18
2022-11-24T05:28:17.484Z,-0.19
2022-11-24T05:30:44.520Z,-0.20
2022-11-24T05:33:24.890Z,-0.21
2022-11-24T05:35:51.911Z,-0.32
2022-11-24T05:38:18.902Z,-0.26
2022-11-24T05:40:45.934Z,-0.29
2022-11-24T05:43:13.331Z,-0.23
2022-11-24T05:45:40.377Z,-0.26
2022-11-24T05:48:08.974Z,-0.22
2022-11-24T05:50:36.100Z,-0.26
2022-11-24T05:53:07.654Z,-0.32
2022-11-24T05:55:35.055Z,-0.23
2022-11-24T05:58:03.434Z,-0.30
2022-11-24T06:00:30.726Z,-0.28
2022-11-24T06:02:58.147Z,-0.26
2022-11-24T06:05:25.783Z,-0.28
2022-11-24T06:07:52.753Z,-0.27
2022-11-24T06:10:20.224Z,-0.23
2022-11-24T06:12:47.319Z,-0.26
2022-11-24T06:15:14.348Z,-0.25
2022-11-24T06:17:41.183Z,-0.26
2022-11-24T06:20:08.608Z,-0.23
2022-11-24T06:22:35.516Z,-0.21
2022-11-24T06:25:02.349Z,-0.25
2022-11-24T06:27:29.246Z,-0.18
2022-11-24T06:29:56.099Z,-0.19
2022-11-24T06:32:24.288Z,-0.21
2022-11-24T06:34:51.148Z,-0.26
2022-11-24T06:37:18.064Z,-0.18
2022-11-24T06:39:44.913Z,-0.20
2022-11-24T06:42:11.831Z,-0.21
2022-11-24T06:44:38.708Z,-0.23
2022-11-24T06:47:05.713Z,-0.28
2022-11-24T06:49:32.561Z,-0.25
2022-11-24T06:51:59.443Z,-0.24
2022-11-24T06:54:26.396Z,-0.30
2022-11-24T06:56:57.561Z,-0.22
2022-11-24T06:59:24.611Z,-0.29
2022-11-24T07:01:51.462Z,-0.19
2022-11-24T07:04:18.527Z,-0.20
2022-11-24T07:06:45.408Z,-0.20
2022-11-24T07:09:13.032Z,-0.15
2022-11-24T07:11:40.243Z,-0.11
2022-11-24T07:14:07.210Z,-0.07
2022-11-24T07:16:34.278Z,-0.13
2022-11-24T07:19:01.209Z,-0.05
2022-11-24T07:21:28.329Z,-0.10
2022-11-24T07:23:56.392Z,-0.07
2022-11-24T07:26:23.527Z,0.01
2022-11-24T07:28:50.939Z,0.04
2022-11-24T07:31:19.771Z,0.00
2022-11-24T07:33:50.047Z,0.05
2022-11-24T07:36:17.116Z,0.07
2022-11-24T07:38:44.007Z,0.10
2022-11-24T07:41:11.648Z,0.12
2022-11-24T07:43:38.721Z,0.13
2022-11-24T07:46:06.791Z,0.17
2022-11-24T07:48:34.318Z,0.20
2022-11-24T07:51:04.709Z,0.20
2022-11-24T07:53:32.371Z,0.21
2022-11-24T07:56:00.569Z,0.20
2022-11-24T07:58:33.109Z,0.31
2022-11-24T08:01:00.647Z,0.33
2022-11-24T08:03:27.916Z,0.34
2022-11-24T08:06:22.456Z,0.38
2022-11-24T08:08:42.959Z,0.41
2022-11-24T08:11:14.243Z,0.43
2022-11-24T08:13:41.122Z,0.43
2022-11-24T08:16:09.859Z,0.41
2022-11-24T08:18:36.902Z,0.51
2022-11-24T08:21:03.989Z,0.52
2022-11-24T08:23:31.108Z,0.53
2022-11-24T08:26:03.142Z,0.51
2022-11-24T08:28:30.005Z,0.53
2022-11-24T08:31:07.730Z,0.57
2022-11-24T08:33:34.630Z,0.58
2022-11-24T08:36:08.947Z,0.61
2022-11-24T08:38:35.844Z,0.63
2022-11-24T08:41:07.487Z,0.58
2022-11-24T08:43:34.437Z,0.61
2022-11-24T08:46:02.247Z,0.66
2022-11-24T08:48:29.394Z,0.70
2022-11-24T08:50:57.064Z,0.76
2022-11-24T08:53:24.161Z,0.74
2022-11-24T08:55:51.161Z,0.83
2022-11-24T08:58:18.063Z,0.85
2022-11-24T09:00:44.956Z,0.80
2022-11-24T09:03:12.047Z,0.91
2022-11-24T09:05:54.464Z,0.91
2022-11-24T09:08:21.365Z,0.95
2022-11-24T09:10:48.387Z,0.99
2022-11-24T09:13:15.367Z,1.04
2022-11-24T09:15:42.257Z,1.05
2022-11-24T09:18:09.168Z,1.11
2022-11-24T09:20:36.267Z,1.15
2022-11-24T09:23:03.174Z,1.19
2022-11-24T09:25:30.012Z,1.22
2022-11-24T09:27:57.499Z,1.27
2022-11-24T09:30:24.497Z,1.28
2022-11-24T09:32:51.412Z,1.35
2022-11-24T09:35:18.244Z,1.32
2022-11-24T09:37:45.910Z,1.39
2022-11-24T09:40:14.357Z,1.36
2022-11-24T09:43:11.579Z,1.46
2022-11-24T09:46:12.008Z,1.50
2022-11-24T09:48:40.948Z,1.46
2022-11-24T09:51:12.305Z,1.53
2022-11-24T09:54:00.799Z,1.61
2022-11-24T09:56:32.789Z,1.63
2022-11-24T09:59:07.198Z,1.65
2022-11-24T10:01:37.919Z,1.62
2022-11-24T10:04:06.893Z,1.69
2022-11-24T10:07:00.911Z,1.72
2022-11-24T10:09:49.006Z,1.76
2022-11-24T10:12:53.389Z,1.80
2022-11-24T10:15:42.517Z,1.86
2022-11-24T10:18:24.586Z,1.92
2022-11-24T10:21:28.785Z,1.98
2022-11-24T10:24:12.916Z,2.03
2022-11-24T10:26:41.083Z,2.04
2022-11-24T10:29:27.024Z,2.05
2022-11-24T10:31:55.247Z,2.14
2022-11-24T10:34:51.351Z,2.19
2022-11-24T10:37:30.789Z,2.17
2022-11-24T10:40:59.585Z,2.17
2022-11-24T10:43:28.504Z,2.02
2022-11-24T10:45:59.712Z,2.06
2022-11-24T10:48:27.825Z,1.99
2022-11-24T10:51:26.527Z,1.97
2022-11-24T10:53:53.645Z,1.91
2022-11-24T10:56:20.484Z,1.92
2022-11-24T10:58:47.395Z,1.92
2022-11-24T11:01:14.363Z,1.88
2022-11-24T11:03:55.521Z,1.86
2022-11-24T11:06:26.146Z,1.86
2022-11-24T11:09:14.765Z,1.86
2022-11-24T11:11:43.085Z,1.84
2022-11-24T11:14:11.033Z,1.73
2022-11-24T11:16:52.303Z,1.80
2022-11-24T11:19:49.046Z,1.84
2022-11-24T11:22:30.428Z,1.80
2022-11-24T11:25:15.757Z,1.88
2022-11-24T11:27:42.722Z,1.92
2022-11-24T11:36:23.265Z,1.88
2022-11-24T11:38:50.133Z,1.86
2022-11-24T11:41:22.244Z,1.79
2022-11-24T11:43:51.482Z,1.77
2022-11-24T11:46:18.519Z,1.77
2022-11-24T11:48:47.079Z,1.78
2022-11-24T11:51:33.012Z,1.84
2022-11-24T11:54:26.188Z,1.87
2022-11-24T11:57:11.770Z,1.86
2022-11-24T12:00:18.349Z,1.92
2022-11-24T12:03:15.643Z,1.95
2022-11-24T12:06:04.199Z,1.97
2022-11-24T12:12:17.231Z,1.99
2022-11-24T12:15:25.226Z,1.97
2022-11-24T12:17:55.676Z,1.97
2022-11-24T12:20:51.737Z,1.98
2022-11-24T12:23:36.825Z,1.99
2022-11-24T12:26:24.834Z,1.81
2022-11-24T12:29:00.426Z,1.98
2022-11-24T12:31:39.485Z,1.94
2022-11-24T12:34:30.045Z,1.93
2022-11-24T12:37:19.841Z,1.88
2022-11-24T12:39:55.811Z,1.77
2022-11-24T12:43:13.541Z,1.80
2022-11-24T12:45:59.338Z,1.76
2022-11-24T12:48:35.725Z,1.72
2022-11-24T12:51:04.109Z,1.66
2022-11-24T12:53:34.423Z,1.58
2022-11-24T12:56:14.809Z,1.57
2022-11-24T12:58:41.665Z,1.51
2022-11-24T13:01:16.118Z,1.46
2022-11-24T13:04:05.430Z,1.32
2022-11-24T13:06:37.980Z,1.34
2022-11-24T13:09:09.532Z,1.25
2022-11-24T13:11:47.291Z,1.20
2022-11-24T13:14:22.439Z,1.13
2022-11-24T13:17:21.153Z,1.14
2022-11-24T13:19:37.080Z,1.06
2022-11-24T13:22:07.897Z,1.09
2022-11-24T13:24:36.918Z,1.05
2022-11-24T13:27:27.780Z,1.03
2022-11-24T13:29:54.730Z,0.96
2022-11-24T13:32:21.562Z,0.98
2022-11-24T13:34:55.114Z,0.96
2022-11-24T13:37:34.985Z,0.95
2022-11-24T13:40:17.150Z,0.92
2022-11-24T13:43:00.434Z,0.91
2022-11-24T13:45:40.459Z,0.87
2022-11-24T13:48:19.868Z,0.84
2022-11-24T13:50:49.629Z,0.81
2022-11-24T13:53:47.683Z,0.79
2022-11-24T13:56:17.316Z,0.78
2022-11-24T13:58:44.461Z,0.76
2022-11-24T14:01:26.872Z,0.74
2022-11-24T14:04:30.505Z,0.71
2022-11-24T14:07:07.050Z,0.67
2022-11-24T14:09:53.122Z,0.59
2022-11-24T14:12:21.352Z,0.63
2022-11-24T14:14:52.293Z,0.66
2022-11-24T14:17:23.696Z,0.60
2022-11-24T14:19:52.360Z,0.61
2022-11-24T14:22:40.291Z,0.59
2022-11-24T14:25:08.802Z,0.58
2022-11-24T14:27:37.954Z,0.52
2022-11-24T14:30:17.606Z,0.52
2022-11-24T14:33:03.473Z,0.55
2022-11-24T14:35:31.867Z,0.51
2022-11-24T14:38:02.560Z,0.56
2022-11-24T14:40:51.404Z,0.54
2022-11-24T14:43:32.854Z,0.49
2022-11-24T14:46:07.367Z,0.53
2022-11-24T14:48:38.405Z,0.51
2022-11-24T14:51:15.774Z,0.50
2022-11-24T14:53:43.321Z,0.49
2022-11-24T14:56:21.917Z,0.45
2022-11-24T14:58:48.700Z,0.45
2022-11-24T15:01:21.551Z,0.47
2022-11-24T15:04:32.537Z,0.46
2022-11-24T15:07:24.186Z,0.44
2022-11-24T15:09:52.379Z,0.33
2022-11-24T15:12:39.533Z,0.38
2022-11-24T15:15:20.536Z,0.35
2022-11-24T15:17:51.606Z,0.32
2022-11-24T15:20:30.766Z,0.32
2022-11-24T15:23:22.174Z,0.36
2022-11-24T15:25:50.450Z,0.35
2022-11-24T15:28:17.237Z,0.33
2022-11-24T15:30:44.068Z,0.27
2022-11-24T15:33:15.731Z,0.26
2022-11-24T15:35:42.665Z,0.29
2022-11-24T15:38:09.917Z,0.23
2022-11-24T15:40:40.324Z,0.19
2022-11-24T15:43:29.009Z,0.23
2022-11-24T15:45:55.966Z,0.21
2022-11-24T15:48:22.721Z,0.20
2022-11-24T15:50:49.833Z,0.19
2022-11-24T15:53:25.807Z,0.17
2022-11-24T15:55:52.760Z,0.18
2022-11-24T15:58:19.624Z,0.17
2022-11-24T16:00:46.643Z,0.10
2022-11-24T16:03:45.282Z,0.17
2022-11-24T16:06:00.247Z,0.15
2022-11-24T16:08:27.201Z,0.08
2022-11-24T16:10:54.064Z,0.10
2022-11-24T16:13:20.868Z,0.12
2022-11-24T16:15:47.705Z,0.12
2022-11-24T16:18:14.584Z,0.09
2022-11-24T16:20:41.368Z,0.03
2022-11-24T16:23:08.145Z,0.11
2022-11-24T16:25:35.023Z,0.06
2022-11-24T16:28:01.860Z,-0.05
2022-11-24T16:30:28.744Z,0.12
2022-11-24T16:32:55.528Z,0.12
2022-11-24T16:35:22.402Z,0.12
2022-11-24T16:37:49.265Z,0.11
2022-11-24T16:40:16.303Z,0.06
2022-11-24T16:42:43.121Z,0.09
2022-11-24T16:45:12.062Z,0.06
2022-11-24T16:47:40.196Z,0.10
2022-11-24T16:50:08.549Z,0.09
2022-11-24T16:52:35.392Z,0.09
2022-11-24T16:55:02.339Z,0.09
2022-11-24T16:57:29.413Z,0.10
2022-11-24T16:59:56.218Z,0.03
2022-11-24T17:02:23.296Z,0.09
2022-11-24T17:04:52.528Z,0.05
2022-11-24T17:07:20.471Z,0.09
2022-11-24T17:09:47.387Z,0.04
2022-11-24T17:12:14.200Z,0.09
2022-11-24T17:14:41.024Z,0.06
2022-11-24T17:17:07.878Z,0.02
2022-11-24T17:19:34.671Z,0.08
2022-11-24T17:22:01.549Z,0.10
2022-11-24T17:24:28.465Z,0.10
2022-11-24T17:26:55.320Z,0.11
2022-11-24T17:29:22.175Z,0.11
2022-11-24T17:31:49.173Z,0.10
2022-11-24T17:34:16.123Z,0.07
2022-11-24T17:36:45.942Z,0.11
2022-11-24T17:39:12.786Z,0.10
2022-11-24T17:41:39.683Z,0.09
2022-11-24T17:44:08.708Z,0.09
2022-11-24T17:46:37.202Z,0.05
2022-11-24T17:49:04.133Z,0.08
2022-11-24T17:51:31.014Z,0.09
2022-11-24T17:53:57.940Z,0.05
2022-11-24T17:56:27.196Z,0.06
2022-11-24T17:58:55.292Z,0.00
2022-11-24T18:01:22.672Z,0.08
2022-11-24T18:03:53.429Z,0.07
2022-11-24T18:06:21.147Z,0.09
2022-11-24T18:08:48.446Z,0.06
2022-11-24T18:11:27.350Z,0.02
2022-11-24T18:14:00.944Z,0.07
2022-11-24T18:16:30.563Z,0.03
2022-11-24T18:19:12.084Z,0.01
2022-11-24T18:21:42.391Z,0.04
2022-11-24T18:24:09.877Z,0.03
2022-11-24T18:26:36.923Z,0.04
2022-11-24T18:29:04.303Z,0.09
2022-11-24T18:31:32.387Z,0.07
2022-11-24T18:33:59.434Z,0.10
2022-11-24T18:36:30.293Z,0.10
2022-11-24T18:38:59.986Z,0.09
2022-11-24T18:41:27.298Z,0.07
2022-11-24T18:43:54.077Z,0.07
2022-11-24T18:46:20.945Z,0.06
2022-11-24T18:48:47.844Z,0.01
2022-11-24T18:51:14.881Z,0.05
2022-11-24T18:53:42.481Z,0.07
2022-11-24T18:56:12.462Z,0.08
2022-11-24T18:58:39.262Z,0.06
2022-11-24T19:01:09.682Z,0.03
2022-11-24T19:03:41.336Z,0.06
2022-11-24T19:06:11.739Z,0.06
2022-11-24T19:08:38.930Z,0.01
2022-11-24T19:11:05.977Z,0.07
2022-11-24T19:13:32.906Z,0.06
2022-11-24T19:16:00.442Z,0.05
2022-11-24T19:18:29.326Z,0.07
2022-11-24T19:20:57.552Z,0.07
2022-11-24T19:23:24.408Z,0.07
2022-11-24T19:25:51.215Z,0.08
2022-11-24T19:28:18.105Z,0.06
2022-11-24T19:30:45.478Z,0.09
2022-11-24T19:33:12.285Z,0.10
2022-11-24T19:35:39.029Z,0.11
2022-11-24T19:38:05.865Z,0.13
2022-11-24T19:40:32.681Z,0.08
2022-11-24T19:42:59.615Z,0.10
2022-11-24T19:45:26.543Z,0.15
2022-11-24T19:47:53.319Z,0.16
2022-11-24T19:50:20.247Z,0.14
2022-11-24T19:52:48.001Z,0.12
2022-11-24T19:55:15.003Z,0.17
2022-11-24T19:57:41.851Z,0.13
2022-11-24T20:00:09.764Z,0.19
2022-11-24T20:02:36.653Z,0.21
2022-11-24T20:05:03.608Z,0.18
2022-11-24T20:07:30.521Z,0.21
2022-11-24T20:09:57.423Z,0.20
2022-11-24T20:12:24.347Z,0.22
2022-11-24T20:14:51.133Z,0.22
2022-11-24T20:17:18.002Z,0.23
2022-11-24T20:19:44.961Z,0.27
2022-11-24T20:22:11.789Z,0.26
2022-11-24T20:24:38.863Z,0.27
2022-11-24T20:27:05.724Z,0.26
2022-11-24T20:29:33.994Z,0.16
2022-11-24T20:32:00.890Z,0.26
2022-11-24T20:34:28.540Z,0.27
2022-11-24T20:36:55.502Z,0.27
2022-11-24T20:39:25.589Z,0.29
2022-11-24T20:41:52.810Z,0.17
2022-11-24T20:44:21.424Z,0.30
2022-11-24T20:46:48.486Z,0.23
2022-11-24T20:49:19.122Z,0.21
2022-11-24T20:51:47.928Z,0.29
2022-11-24T20:54:16.121Z,0.26
2022-11-24T20:56:43.593Z,0.28
2022-11-24T20:59:12.622Z,0.30
2022-11-24T21:01:41.073Z,0.31
2022-11-24T21:04:09.603Z,0.21
2022-11-24T21:06:36.640Z,0.27
2022-11-24T21:09:04.437Z,0.32
2022-11-24T21:11:31.640Z,0.32
2022-11-24T21:13:58.646Z,0.32
2022-11-24T21:16:29.617Z,0.32
2022-11-24T21:18:58.028Z,0.34
2022-11-24T21:21:25.549Z,0.33
2022-11-24T21:23:52.442Z,0.26
2022-11-24T21:26:19.467Z,0.35
2022-11-24T21:28:47.099Z,0.35
2022-11-24T21:31:18.629Z,0.37
2022-11-24T21:33:47.006Z,0.32
2022-11-24T21:36:14.827Z,0.36
2022-11-24T21:38:42.765Z,0.30
2022-11-24T21:41:10.411Z,0.29
2022-11-24T21:43:37.423Z,0.30
2022-11-24T21:46:06.031Z,0.29
2022-11-24T21:48:33.433Z,0.37
2022-11-24T21:51:01.319Z,0.38
2022-11-24T21:53:30.846Z,0.35
2022-11-24T21:55:58.557Z,0.38
2022-11-24T21:58:25.693Z,0.40
2022-11-24T22:00:52.774Z,0.39
2022-11-24T22:03:19.621Z,0.39
2022-11-24T22:05:56.488Z,0.42
2022-11-24T22:08:23.817Z,0.42
2022-11-24T22:10:50.658Z,0.42
2022-11-24T22:13:17.474Z,0.39
2022-11-24T22:15:44.350Z,0.44
2022-11-24T22:18:11.168Z,0.45
2022-11-24T22:20:38.308Z,0.39
2022-11-24T22:23:05.151Z,0.40
2022-11-24T22:25:31.888Z,0.46
2022-11-24T22:27:58.627Z,0.48
2022-11-24T22:30:25.329Z,0.40
2022-11-24T22:32:53.358Z,0.48
2022-11-24T22:35:20.099Z,0.47
2022-11-24T22:37:46.852Z,0.48
2022-11-24T22:40:13.718Z,0.50
2022-11-24T22:42:40.416Z,0.51
2022-11-24T22:45:07.948Z,0.44
2022-11-24T22:47:34.688Z,0.52
2022-11-24T22:50:01.455Z,0.52
2022-11-24T22:52:28.185Z,0.35
2022-11-24T22:54:54.933Z,0.50
2022-11-24T22:57:21.680Z,0.53
2022-11-24T22:59:48.468Z,0.52
2022-11-24T23:02:15.229Z,0.53
2022-11-24T23:04:42.003Z,0.54
2022-11-24T23:07:09.730Z,0.43
2022-11-24T23:09:36.512Z,0.52
2022-11-24T23:12:03.406Z,0.55
2022-11-24T23:14:30.218Z,0.55
2022-11-24T23:16:57.012Z,0.51
2022-11-24T23:19:23.798Z,0.53
2022-11-24T23:21:50.632Z,0.49
2022-11-24T23:24:17.497Z,0.53
2022-11-24T23:26:44.297Z,0.52
2022-11-24T23:29:11.682Z,0.42
2022-11-24T23:31:40.329Z,0.50
2022-11-24T23:34:07.342Z,0.51
2022-11-24T23:36:34.156Z,0.50
2022-11-24T23:39:08.764Z,0.51
2022-11-24T23:41:35.599Z,0.51
2022-11-24T23:44:02.590Z,0.51
2022-11-24T23:46:29.425Z,0.51
2022-11-24T23:48:56.369Z,0.51
2022-11-24T23:51:30.498Z,0.44
2022-11-24T23:56:41.854Z,0.50
2022-11-24T23:59:10.318Z,0.47
